Time;durP1;ratioP1;P1;durP2;ratioP2;P2;SDS_P1;SDS_P2;PMS_P1;PMS_P2;Temp;Humidity;BMP_temperature;BMP_pressure;BME280_temperature;BME280_humidity;BME280_pressure;Samples;Min_cycle;Max_cycle;Signal;HPM_P1;HPM_P2
2021/09/16 00:01:44;;;;;;;;;;;;;;;16.88;75.04;99894.16;5035587;28;19979;-63
2021/09/16 00:04:30;;;;;;;;;;;;;;;16.84;74.99;99893.31;5036558;28;20339;-63
2021/09/16 00:07:14;;;;;;;;;;;;;;;16.84;74.74;99895.06;5035791;28;19964;-63
2021/09/16 00:10:00;;;;;;;;;;;;;;;16.83;74.79;99893.34;5036216;28;19928;-63
2021/09/16 00:12:47;;;;;;;;;;;;;;;16.80;74.82;99899.47;5036332;28;20355;-63
2021/09/16 00:15:31;;;;;;;;;;;;;;;16.79;74.59;99896.88;5035962;28;19928;-63
2021/09/16 00:18:18;;;;;;;;;;;;;;;16.77;74.74;99902.13;5036739;28;19990;-63
2021/09/16 00:21:02;;;;;;;;;;;;;;;16.78;74.83;99906.47;5036703;28;19927;-63
2021/09/16 00:23:45;;;;;;;;;;;;;;;16.75;74.60;99903.91;5035051;28;19976;-64
2021/09/16 00:26:32;;;;;;;;;;;;;;;16.73;74.77;99914.41;5036356;28;19928;-62
2021/09/16 00:29:19;;;;;;;;;;;;;;;16.72;74.82;99912.66;5036067;28;19974;-63
2021/09/16 00:32:10;;;;;;;;;;;;;;;16.71;74.73;99907.44;5035291;28;19975;-63
2021/09/16 00:34:54;;;;;;;;;;;;;;;16.69;74.67;99906.56;5035025;28;19983;-63
2021/09/16 00:37:38;;;;;;;;;;;;;;;16.68;74.66;99910.94;5035094;28;20051;-63
2021/09/16 00:40:22;;;;;;;;;;;;;;;16.68;74.62;99910.06;5036234;28;19932;-63
2021/09/16 00:43:05;;;;;;;;;;;;;;;16.65;74.49;99913.59;5036083;28;19928;-63
2021/09/16 00:46:02;;;;;;;;;;;;;;;16.64;74.50;99917.09;5035698;28;19928;-62
2021/09/16 00:48:46;;;;;;;;;;;;;;;16.62;74.43;99918.84;5034202;28;20014;-62
2021/09/16 00:51:36;;;;;;;;;;;;;;;16.61;74.46;99913.66;5035475;28;19966;-64
2021/09/16 00:54:23;;;;;;;;;;;;;;;16.58;74.37;99914.56;5035408;28;20350;-65
2021/09/16 00:57:07;;;;;;;;;;;;;;;16.56;74.30;99919.78;5049020;28;20345;-63
2021/09/16 00:59:53;;;;;;;;;;;;;;;16.56;74.28;99926.78;5034686;28;19967;-63
2021/09/16 01:02:42;;;;;;;;;;;;;;;16.55;74.14;99927.66;5035202;28;20292;-63
2021/09/16 01:05:26;;;;;;;;;;;;;;;16.52;74.39;99918.09;5034426;28;19936;-63
2021/09/16 01:08:13;;;;;;;;;;;;;;;16.51;74.27;99924.19;5035435;28;20288;-63
2021/09/16 01:10:58;;;;;;;;;;;;;;;16.50;74.21;99924.22;5034008;28;19928;-64
2021/09/16 01:13:45;;;;;;;;;;;;;;;16.49;74.33;99925.09;5035652;28;20141;-64
2021/09/16 01:16:29;;;;;;;;;;;;;;;16.47;74.00;99926.88;5034638;28;20076;-64
2021/09/16 01:19:15;;;;;;;;;;;;;;;16.46;74.18;99931.25;5034751;28;19932;-64
2021/09/16 01:21:59;;;;;;;;;;;;;;;16.44;74.22;99935.63;5034105;28;19979;-64
2021/09/16 01:24:43;;;;;;;;;;;;;;;16.42;73.95;99948.72;5048524;28;19960;-64
2021/09/16 01:27:27;;;;;;;;;;;;;;;16.41;74.10;99949.59;5034726;28;20067;-64
2021/09/16 01:30:14;;;;;;;;;;;;;;;16.39;74.06;99951.38;5035269;28;19966;-64
2021/09/16 01:32:58;;;;;;;;;;;;;;;16.38;73.95;99948.75;5034344;28;19927;-64
2021/09/16 01:35:42;;;;;;;;;;;;;;;16.34;73.80;99950.53;5034692;28;19986;-64
2021/09/16 01:38:26;;;;;;;;;;;;;;;16.33;73.68;99951.41;5034528;28;20304;-64
2021/09/16 01:41:12;;;;;;;;;;;;;;;16.31;73.79;99953.16;5035618;28;19932;-64
2021/09/16 01:43:59;;;;;;;;;;;;;;;16.29;73.71;99950.59;5047782;28;19928;-64
2021/09/16 01:46:43;;;;;;;;;;;;;;;16.29;73.90;99947.09;5034232;28;20453;-64
2021/09/16 01:49:27;;;;;;;;;;;;;;;16.29;73.76;99950.59;5034279;28;19928;-64
2021/09/16 01:52:11;;;;;;;;;;;;;;;16.27;73.93;99948.88;5034770;28;19928;-64
2021/09/16 01:54:55;;;;;;;;;;;;;;;16.26;73.81;99952.38;5033563;28;19928;-64
2021/09/16 01:57:44;;;;;;;;;;;;;;;16.24;73.81;99948.88;5034779;28;19928;-64
2021/09/16 02:00:29;;;;;;;;;;;;;;;16.22;73.87;99955.88;5033432;28;19951;-64
2021/09/16 02:03:13;;;;;;;;;;;;;;;16.21;73.55;99960.22;5033078;28;20300;-64
2021/09/16 02:05:59;;;;;;;;;;;;;;;16.20;73.75;99965.47;5033895;28;20369;-64
2021/09/16 02:08:43;;;;;;;;;;;;;;;16.18;73.66;99965.50;5033618;28;19931;-64
2021/09/16 02:11:27;;;;;;;;;;;;;;;16.16;73.52;99967.25;5033208;28;19979;-64
2021/09/16 02:14:13;;;;;;;;;;;;;;;16.14;73.48;99975.09;5034291;28;19936;-64
2021/09/16 02:17:00;;;;;;;;;;;;;;;16.14;73.70;99969.88;5034080;28;19928;-64
2021/09/16 02:19:47;;;;;;;;;;;;;;;16.12;73.40;99965.53;5033085;28;19987;-64
2021/09/16 02:22:34;;;;;;;;;;;;;;;16.11;73.62;99977.75;5034091;28;19975;-64
2021/09/16 02:25:18;;;;;;;;;;;;;;;16.11;73.58;99976.88;5034027;28;19927;-64
2021/09/16 02:28:04;;;;;;;;;;;;;;;16.08;73.34;99976.88;5033710;28;20415;-64
2021/09/16 02:30:51;;;;;;;;;;;;;;;16.07;73.26;99983.00;5033142;28;19928;-64
2021/09/16 02:33:35;;;;;;;;;;;;;;;16.04;73.28;99989.13;5033352;28;20288;-64
2021/09/16 02:36:25;;;;;;;;;;;;;;;16.04;73.55;99985.66;5034296;28;20315;-64
2021/09/16 02:39:09;;;;;;;;;;;;;;;16.03;73.26;99981.31;5033411;28;19928;-64
2021/09/16 02:41:58;;;;;;;;;;;;;;;16.01;73.44;99991.75;5033900;28;20052;-64
2021/09/16 02:44:43;;;;;;;;;;;;;;;16.01;73.42;99985.69;5033991;28;19928;-64
2021/09/16 02:47:27;;;;;;;;;;;;;;;15.97;73.39;99993.53;5033671;28;20395;-64
2021/09/16 02:50:11;;;;;;;;;;;;;;;15.98;73.11;99989.16;5046380;28;19964;-64
2021/09/16 02:52:57;;;;;;;;;;;;;;;15.97;73.21;100000.50;5033496;28;19928;-64
2021/09/16 02:55:41;;;;;;;;;;;;;;;15.95;73.24;99999.66;5033028;28;19971;-64
2021/09/16 02:58:25;;;;;;;;;;;;;;;15.93;73.33;99996.19;5033743;28;19976;-64
2021/09/16 03:01:09;;;;;;;;;;;;;;;15.93;72.97;99999.66;5033748;28;19928;-63
2021/09/16 03:03:53;;;;;;;;;;;;;;;15.93;73.16;99996.19;5032759;28;19961;-64
2021/09/16 03:06:37;;;;;;;;;;;;;;;15.91;72.86;99993.56;5032662;28;19928;-64
2021/09/16 03:09:23;;;;;;;;;;;;;;;15.90;72.99;99993.59;5032747;28;19928;-64
2021/09/16 03:12:06;;;;;;;;;;;;;;;15.90;73.00;99990.97;5035323;28;20402;-64
2021/09/16 03:14:50;;;;;;;;;;;;;;;15.88;72.98;99992.72;5037169;28;19974;-64
2021/09/16 03:17:35;;;;;;;;;;;;;;;15.88;73.01;100001.44;5037267;28;19968;-64
2021/09/16 03:20:26;;;;;;;;;;;;;;;15.87;72.97;99996.22;5036397;28;19928;-64
2021/09/16 03:23:10;;;;;;;;;;;;;;;15.86;73.04;99997.09;5036315;28;19967;-64
2021/09/16 03:25:56;;;;;;;;;;;;;;;15.83;72.87;99996.19;5037434;28;19967;-64
2021/09/16 03:28:40;;;;;;;;;;;;;;;15.83;73.11;99998.81;5036355;28;19928;-64
2021/09/16 03:31:24;;;;;;;;;;;;;;;15.84;72.90;99995.31;5036843;28;19927;-64
2021/09/16 03:34:10;;;;;;;;;;;;;;;15.84;73.06;100000.53;5037187;28;19943;-65
2021/09/16 03:36:54;;;;;;;;;;;;;;;15.81;72.84;99995.34;5037080;28;19974;-63
2021/09/16 03:39:38;;;;;;;;;;;;;;;15.80;72.97;99998.81;5036971;28;19936;-63
2021/09/16 03:42:22;;;;;;;;;;;;;;;15.80;72.95;99996.22;5037070;28;19951;-63
2021/09/16 03:45:06;;;;;;;;;;;;;;;15.80;72.94;100004.03;5037347;28;19928;-63
2021/09/16 03:47:53;;;;;;;;;;;;;;;15.79;72.85;99998.84;5036840;28;19928;-63
2021/09/16 03:50:37;;;;;;;;;;;;;;;15.78;72.76;100002.31;5035350;28;19928;-63
2021/09/16 03:53:21;;;;;;;;;;;;;;;15.78;72.79;99994.50;5036864;28;19940;-63
2021/09/16 03:56:11;;;;;;;;;;;;;;;15.76;72.82;99988.41;5036431;28;19928;-63
2021/09/16 03:59:00;;;;;;;;;;;;;;;15.76;72.96;99991.00;5035518;28;19968;-63
2021/09/16 04:01:44;;;;;;;;;;;;;;;15.75;73.00;99987.56;5035526;28;19928;-64
2021/09/16 04:04:31;;;;;;;;;;;;;;;15.77;72.93;99990.13;5035746;28;19975;-63
2021/09/16 04:07:18;;;;;;;;;;;;;;;15.75;72.97;99992.78;5036603;28;19990;-64
2021/09/16 04:10:06;;;;;;;;;;;;;;;15.74;72.95;99983.19;5036411;28;19975;-64
2021/09/16 04:12:50;;;;;;;;;;;;;;;15.75;72.79;99987.56;5035442;28;20022;-64
2021/09/16 04:15:37;;;;;;;;;;;;;;;15.74;72.95;99987.53;5035799;28;20300;-64
2021/09/16 04:18:29;;;;;;;;;;;;;;;15.74;72.85;99984.94;5035480;28;19979;-64
2021/09/16 04:21:16;;;;;;;;;;;;;;;15.74;72.90;99987.53;5035274;28;20441;-64
2021/09/16 04:24:00;;;;;;;;;;;;;;;15.73;72.90;99991.03;5035422;28;19971;-62
2021/09/16 04:26:49;;;;;;;;;;;;;;;15.72;72.90;99990.19;5036184;28;19967;-65
2021/09/16 04:29:41;;;;;;;;;;;;;;;15.72;72.95;99990.19;5035239;28;19932;-63
2021/09/16 04:32:29;;;;;;;;;;;;;;;15.71;72.78;99985.81;5036113;28;20394;-63
2021/09/16 04:35:13;;;;;;;;;;;;;;;15.72;72.71;99990.19;5036127;28;19975;-63
2021/09/16 04:37:59;;;;;;;;;;;;;;;15.71;72.63;99982.38;5035530;28;19929;-63
2021/09/16 04:40:46;;;;;;;;;;;;;;;15.70;72.77;99985.84;5036229;28;19932;-63
2021/09/16 04:43:35;;;;;;;;;;;;;;;15.71;72.71;99993.66;5034952;28;19987;-64
2021/09/16 04:46:19;;;;;;;;;;;;;;;15.69;72.78;99995.41;5034921;28;20019;-63
2021/09/16 04:49:03;;;;;;;;;;;;;;;15.70;72.88;100002.38;5034957;28;19947;-62
2021/09/16 04:51:52;;;;;;;;;;;;;;;15.70;72.80;100001.53;5035360;28;20403;-63
2021/09/16 04:54:40;;;;;;;;;;;;;;;15.70;73.02;100005.00;5035232;28;19943;-63
2021/09/16 04:57:23;;;;;;;;;;;;;;;15.70;72.79;100006.75;5034481;28;19927;-63
2021/09/16 05:00:08;;;;;;;;;;;;;;;15.71;72.94;100009.34;5034661;28;19929;-63
2021/09/16 05:02:52;;;;;;;;;;;;;;;15.71;72.77;100004.13;5034408;28;19928;-63
2021/09/16 05:05:38;;;;;;;;;;;;;;;15.72;72.79;100003.25;5035058;28;19967;-63
2021/09/16 05:08:25;;;;;;;;;;;;;;;15.72;72.90;100002.38;5034374;28;19979;-63
2021/09/16 05:11:09;;;;;;;;;;;;;;;15.72;72.96;100008.47;5034284;28;20472;-63
2021/09/16 05:13:53;;;;;;;;;;;;;;;15.73;72.82;100011.94;5034657;28;20019;-64
2021/09/16 05:16:39;;;;;;;;;;;;;;;15.72;72.96;100011.06;5034324;28;19928;-64
2021/09/16 05:19:25;;;;;;;;;;;;;;;15.73;72.93;100010.19;5035271;28;19978;-63
2021/09/16 05:22:12;;;;;;;;;;;;;;;15.73;72.85;100018.03;5048661;28;20417;-63
2021/09/16 05:24:59;;;;;;;;;;;;;;;15.74;72.80;100017.16;5034420;28;19927;-64
2021/09/16 05:27:43;;;;;;;;;;;;;;;15.73;72.81;100009.31;5034323;28;20024;-63
2021/09/16 05:30:30;;;;;;;;;;;;;;;15.74;73.02;100021.50;5034689;28;19928;-63
2021/09/16 05:33:14;;;;;;;;;;;;;;;15.74;72.95;100018.88;5035240;28;19948;-63
2021/09/16 05:35:58;;;;;;;;;;;;;;;15.75;73.04;100018.00;5034941;28;19928;-63
2021/09/16 05:38:42;;;;;;;;;;;;;;;15.76;72.85;100019.75;5034951;28;19936;-63
2021/09/16 05:41:26;;;;;;;;;;;;;;;15.74;72.88;100024.13;5034295;28;19928;-63
2021/09/16 05:44:16;;;;;;;;;;;;;;;15.74;72.91;100021.50;5034585;28;19944;-62
2021/09/16 05:47:00;;;;;;;;;;;;;;;15.75;73.02;100025.84;5034081;28;20472;-63
2021/09/16 05:49:44;;;;;;;;;;;;;;;15.76;73.00;100027.59;5034279;28;19974;-63
2021/09/16 05:52:33;;;;;;;;;;;;;;;15.76;73.13;100028.47;5034698;28;19928;-63
2021/09/16 05:55:20;;;;;;;;;;;;;;;15.76;72.89;100027.59;5033385;28;19971;-63
2021/09/16 05:58:04;;;;;;;;;;;;;;;15.76;73.04;100033.72;5034056;28;19939;-63
2021/09/16 06:00:53;;;;;;;;;;;;;;;15.77;72.96;100037.16;5034426;28;19944;-63
2021/09/16 06:03:37;;;;;;;;;;;;;;;15.77;73.21;100039.78;5033247;28;19927;-63
2021/09/16 06:06:27;;;;;;;;;;;;;;;15.76;73.08;100040.66;5033960;28;19928;-63
2021/09/16 06:09:17;;;;;;;;;;;;;;;15.75;72.97;100034.56;5032787;28;19928;-63
2021/09/16 06:12:08;;;;;;;;;;;;;;;15.77;72.92;100032.84;5033428;28;19928;-63
2021/09/16 06:14:54;;;;;;;;;;;;;;;15.78;73.14;100034.56;5033606;28;19971;-63
2021/09/16 06:17:38;;;;;;;;;;;;;;;15.78;72.92;100031.97;5033198;28;20418;-63
2021/09/16 06:20:25;;;;;;;;;;;;;;;15.77;73.25;100040.66;5034226;28;19979;-63
2021/09/16 06:23:09;;;;;;;;;;;;;;;15.78;73.12;100042.41;5033444;28;19992;-63
2021/09/16 06:25:53;;;;;;;;;;;;;;;15.77;73.15;100039.78;5033349;28;20045;-63
2021/09/16 06:28:39;;;;;;;;;;;;;;;15.77;73.21;100045.00;5034432;28;19945;-64
2021/09/16 06:31:23;;;;;;;;;;;;;;;15.78;73.23;100050.25;5046976;28;19932;-64
2021/09/16 06:34:13;;;;;;;;;;;;;;;15.78;73.08;100052.84;5047321;28;19947;-63
2021/09/16 06:36:57;;;;;;;;;;;;;;;15.79;73.18;100048.50;5033008;28;19975;-63
2021/09/16 06:39:47;;;;;;;;;;;;;;;15.79;73.28;100044.16;5032878;28;20331;-63
2021/09/16 06:42:31;;;;;;;;;;;;;;;15.80;73.16;100051.06;5033148;28;20020;-63
2021/09/16 06:45:18;;;;;;;;;;;;;;;15.80;73.11;100055.44;5033986;28;19944;-63
2021/09/16 06:48:02;;;;;;;;;;;;;;;15.82;73.05;100051.09;5032279;28;19929;-63
2021/09/16 06:50:46;;;;;;;;;;;;;;;15.82;73.33;100054.56;5033321;28;19967;-63
2021/09/16 06:53:30;;;;;;;;;;;;;;;15.81;73.13;100058.03;5033770;28;19971;-63
2021/09/16 06:56:19;;;;;;;;;;;;;;;15.81;73.25;100057.19;5033919;28;19928;-63
2021/09/16 06:59:09;;;;;;;;;;;;;;;15.82;73.35;100064.16;5032889;28;19927;-63
2021/09/16 07:01:53;;;;;;;;;;;;;;;15.83;73.22;100064.13;5032780;28;19967;-64
2021/09/16 07:04:39;;;;;;;;;;;;;;;15.83;73.37;100060.66;5033503;28;20013;-64
2021/09/16 07:07:26;;;;;;;;;;;;;;;15.83;73.32;100063.28;5033029;28;19931;-64
2021/09/16 07:10:13;;;;;;;;;;;;;;;15.83;73.21;100061.53;5032413;28;19928;-64
2021/09/16 07:12:59;;;;;;;;;;;;;;;15.84;73.32;100065.03;5032623;28;19927;-63
2021/09/16 07:15:43;;;;;;;;;;;;;;;15.84;73.33;100068.47;5033602;28;20323;-63
2021/09/16 07:18:34;;;;;;;;;;;;;;;15.85;73.43;100066.78;5033229;28;20300;-63
2021/09/16 07:21:17;;;;;;;;;;;;;;;15.84;73.43;100067.63;5032564;28;19975;-63
2021/09/16 07:24:04;;;;;;;;;;;;;;;15.85;73.37;100066.78;5032853;28;19931;-63
2021/09/16 07:26:51;;;;;;;;;;;;;;;15.84;73.44;100065.88;5033517;28;20391;-63
2021/09/16 07:29:40;;;;;;;;;;;;;;;15.86;73.37;100072.88;5033613;28;19975;-64
2021/09/16 07:32:33;;;;;;;;;;;;;;;15.86;73.41;100071.16;5032250;28;19987;-64
2021/09/16 07:35:25;;;;;;;;;;;;;;;15.86;73.47;100068.53;5032689;28;19983;-64
2021/09/16 07:38:15;;;;;;;;;;;;;;;15.88;73.57;100074.63;5032800;28;20372;-64
2021/09/16 07:41:06;;;;;;;;;;;;;;;15.88;73.66;100079.84;5032639;28;20445;-64
2021/09/16 07:43:50;;;;;;;;;;;;;;;15.89;73.58;100084.16;5032445;28;19971;-63
2021/09/16 07:46:35;;;;;;;;;;;;;;;15.89;73.41;100086.78;5032685;28;19928;-64
2021/09/16 07:49:26;;;;;;;;;;;;;;;15.90;73.49;100092.91;5033305;28;19975;-65
2021/09/16 07:52:19;;;;;;;;;;;;;;;15.91;73.66;100094.63;5033049;28;20419;-64
2021/09/16 07:55:11;;;;;;;;;;;;;;;15.90;73.48;100101.59;5032641;28;20015;-64
2021/09/16 07:57:58;;;;;;;;;;;;;;;15.90;73.48;100098.13;5033335;28;19928;-64
2021/09/16 08:00:51;;;;;;;;;;;;;;;15.90;73.53;100103.34;5036589;28;19928;-64
2021/09/16 08:03:44;;;;;;;;;;;;;;;15.91;73.52;100099.84;5035182;28;19928;-64
2021/09/16 08:06:36;;;;;;;;;;;;;;;15.91;73.49;100105.09;5035834;28;20307;-64
2021/09/16 08:09:20;;;;;;;;;;;;;;;15.90;73.53;100101.59;5035956;28;20361;-64
2021/09/16 08:12:04;;;;;;;;;;;;;;;15.89;73.61;100105.06;5036336;28;19987;-64
2021/09/16 08:14:53;;;;;;;;;;;;;;;15.90;73.65;100104.19;5036488;28;20015;-64
2021/09/16 08:17:46;;;;;;;;;;;;;;;15.89;73.68;100096.38;5035372;28;20407;-63
2021/09/16 08:20:41;;;;;;;;;;;;;;;15.92;73.64;100101.59;5035949;28;19967;-64
2021/09/16 08:23:33;;;;;;;;;;;;;;;15.93;73.83;100095.50;5035468;28;20462;-63
2021/09/16 08:26:17;;;;;;;;;;;;;;;15.94;73.72;100097.25;5035227;28;19928;-63
2021/09/16 08:29:10;;;;;;;;;;;;;;;15.93;73.67;100104.19;5035810;28;19928;-63
2021/09/16 08:32:00;;;;;;;;;;;;;;;15.96;73.75;100104.19;5035235;28;19952;-63
2021/09/16 08:34:44;;;;;;;;;;;;;;;15.98;73.86;100102.44;5035151;28;20071;-63
2021/09/16 08:37:30;;;;;;;;;;;;;;;15.99;73.88;100111.13;5035944;28;20288;-63
2021/09/16 08:40:15;;;;;;;;;;;;;;;15.99;73.90;100103.28;5035240;28;19928;-63
2021/09/16 08:43:02;;;;;;;;;;;;;;;16.01;73.88;100106.75;5035478;28;20035;-63
2021/09/16 08:45:48;;;;;;;;;;;;;;;16.01;73.98;100105.91;5049247;28;19975;-63
2021/09/16 08:48:34;;;;;;;;;;;;;;;16.03;73.92;100107.63;5034713;28;19928;-63
2021/09/16 08:51:19;;;;;;;;;;;;;;;16.04;74.03;100111.13;5034785;28;19927;-64
2021/09/16 08:54:03;;;;;;;;;;;;;;;16.05;74.00;100118.06;5034884;28;19936;-63
2021/09/16 08:56:50;;;;;;;;;;;;;;;16.05;74.16;100108.50;5034651;28;20316;-63
2021/09/16 08:59:34;;;;;;;;;;;;;;;16.06;74.23;100115.47;5035544;28;20067;-62
2021/09/16 09:02:21;;;;;;;;;;;;;;;16.08;74.02;100112.81;5034140;28;19932;-63
2021/09/16 09:05:09;;;;;;;;;;;;;;;16.10;74.17;100106.72;5034958;28;19967;-64
2021/09/16 09:07:54;;;;;;;;;;;;;;;16.13;74.04;100106.69;5034075;28;19928;-64
2021/09/16 09:10:41;;;;;;;;;;;;;;;16.14;74.38;100112.81;5034713;28;19968;-64
2021/09/16 09:13:28;;;;;;;;;;;;;;;16.16;74.47;100115.41;5035560;28;19928;-64
2021/09/16 09:16:14;;;;;;;;;;;;;;;16.19;74.35;100120.63;5035421;28;19995;-64
2021/09/16 09:18:59;;;;;;;;;;;;;;;16.18;74.42;100117.16;5035523;28;20067;-64
2021/09/16 09:21:45;;;;;;;;;;;;;;;16.19;74.37;100118.88;5035381;28;19944;-64
2021/09/16 09:24:31;;;;;;;;;;;;;;;16.19;74.37;100129.34;5034113;28;20427;-64
2021/09/16 09:27:22;;;;;;;;;;;;;;;16.22;74.34;100120.59;5034373;28;19967;-64
2021/09/16 09:30:09;;;;;;;;;;;;;;;16.23;74.38;100117.13;5033670;28;20403;-64
2021/09/16 09:32:53;;;;;;;;;;;;;;;16.23;74.49;100114.50;5034891;28;20383;-64
2021/09/16 09:35:41;;;;;;;;;;;;;;;16.25;74.58;100123.19;5034751;28;20016;-64
2021/09/16 09:38:26;;;;;;;;;;;;;;;16.27;74.43;100126.69;5034087;28;20304;-64
2021/09/16 09:41:15;;;;;;;;;;;;;;;16.28;74.61;100128.38;5035247;28;19929;-64
2021/09/16 09:44:04;;;;;;;;;;;;;;;16.29;74.37;100125.78;5033567;28;20048;-64
2021/09/16 09:46:50;;;;;;;;;;;;;;;16.30;74.36;100126.63;5033905;28;19928;-64
2021/09/16 09:49:38;;;;;;;;;;;;;;;16.32;74.33;100127.50;5034125;28;19932;-64
2021/09/16 09:52:30;;;;;;;;;;;;;;;16.32;74.55;100127.50;5034667;28;20283;-64
2021/09/16 09:55:20;;;;;;;;;;;;;;;16.33;74.34;100123.16;5034712;28;20472;-64
2021/09/16 09:58:03;;;;;;;;;;;;;;;16.34;74.26;100133.59;5034551;28;19931;-64
2021/09/16 10:00:47;;;;;;;;;;;;;;;16.35;74.41;100127.50;5033359;28;19928;-64
2021/09/16 10:03:34;;;;;;;;;;;;;;;16.36;74.49;100120.50;5034351;28;19927;-64
2021/09/16 10:06:18;;;;;;;;;;;;;;;16.37;74.40;100122.22;5033347;28;20039;-64
2021/09/16 10:09:13;;;;;;;;;;;;;;;16.39;74.50;100120.47;5033134;28;20070;-64
2021/09/16 10:12:03;;;;;;;;;;;;;;;16.40;74.33;100123.09;5034366;28;20295;-64
2021/09/16 10:14:47;;;;;;;;;;;;;;;16.41;74.28;100110.88;5033718;28;19976;-64
2021/09/16 10:17:33;;;;;;;;;;;;;;;16.42;74.30;100113.50;5034221;28;19928;-64
2021/09/16 10:20:19;;;;;;;;;;;;;;;16.46;74.31;100116.97;5034073;28;19928;-64
2021/09/16 10:23:04;;;;;;;;;;;;;;;16.47;74.48;100109.97;5033461;28;19927;-64
2021/09/16 10:25:49;;;;;;;;;;;;;;;16.51;74.36;100116.91;5033923;28;20407;-64
2021/09/16 10:28:38;;;;;;;;;;;;;;;16.51;74.44;100117.78;5033269;28;19970;-64
2021/09/16 10:31:22;;;;;;;;;;;;;;;16.53;74.26;100112.53;5033498;28;20395;-64
2021/09/16 10:34:25;;;;;;;;;;;;;;;16.54;74.42;100103.81;5034295;28;19947;-64
2021/09/16 10:37:11;;;;;;;;;;;;;;;16.54;74.42;100102.06;5033334;28;19928;-64
2021/09/16 10:39:55;;;;;;;;;;;;;;;16.55;74.22;100108.19;5032460;28;19971;-64
2021/09/16 10:42:53;;;;;;;;;;;;;;;16.56;74.26;100110.78;5034209;28;19940;-64
2021/09/16 10:45:43;;;;;;;;;;;;;;;16.58;74.19;100113.41;5033538;28;19928;-64
2021/09/16 10:48:27;;;;;;;;;;;;;;;16.59;74.24;100115.09;5033383;28;20375;-64
2021/09/16 10:51:34;;;;;;;;;;;;;;;16.60;74.31;100111.59;5033739;28;19983;-64
2021/09/16 10:54:27;;;;;;;;;;;;;;;16.62;74.35;100103.75;5033302;28;19928;-64
2021/09/16 10:57:20;;;;;;;;;;;;;;;16.62;74.33;100112.47;5033565;28;20431;-65
2021/09/16 11:00:20;;;;;;;;;;;;;;;16.63;74.36;100110.72;5033755;28;19987;-64
2021/09/16 11:03:04;;;;;;;;;;;;;;;16.62;74.45;100109.84;5033484;28;19936;-65
2021/09/16 11:05:50;;;;;;;;;;;;;;;16.63;74.21;100100.28;5033585;28;19967;-64
2021/09/16 11:08:53;;;;;;;;;;;;;;;16.62;74.20;100094.16;5032603;28;19975;-64
2021/09/16 11:11:50;;;;;;;;;;;;;;;16.63;74.43;100110.72;5032924;28;19929;-64
2021/09/16 11:14:36;;;;;;;;;;;;;;;16.63;74.36;100111.59;5033595;28;19975;-64
2021/09/16 11:17:26;;;;;;;;;;;;;;;16.62;74.20;100099.38;5033313;28;19929;-64
2021/09/16 11:20:12;;;;;;;;;;;;;;;16.64;74.06;100100.25;5033350;28;19927;-64
2021/09/16 11:22:56;;;;;;;;;;;;;;;16.64;74.13;100113.31;5032481;28;19928;-64
2021/09/16 11:25:44;;;;;;;;;;;;;;;16.66;74.14;100108.09;5033699;28;19974;-64
2021/09/16 11:28:28;;;;;;;;;;;;;;;16.66;74.34;100115.94;5032738;28;19927;-64
2021/09/16 11:31:18;;;;;;;;;;;;;;;16.66;74.07;100102.88;5033269;28;19928;-64
2021/09/16 11:34:06;;;;;;;;;;;;;;;16.66;74.13;100106.34;5036537;28;20403;-63
2021/09/16 11:37:02;;;;;;;;;;;;;;;16.66;74.06;100101.09;5036492;28;19970;-64
2021/09/16 11:40:05;;;;;;;;;;;;;;;16.68;74.08;100098.47;5037357;28;19974;-63
2021/09/16 11:42:51;;;;;;;;;;;;;;;16.69;74.22;100101.09;5036465;28;19927;-64
2021/09/16 11:45:35;;;;;;;;;;;;;;;16.72;73.92;100098.44;5036017;28;19944;-64
2021/09/16 11:48:23;;;;;;;;;;;;;;;16.74;74.06;100099.28;5036661;28;20295;-64
2021/09/16 11:51:10;;;;;;;;;;;;;;;16.75;73.96;100103.63;5035511;28;20075;-64
2021/09/16 11:53:54;;;;;;;;;;;;;;;16.78;73.94;100109.72;5036658;28;19932;-64
2021/09/16 11:56:40;;;;;;;;;;;;;;;16.79;74.05;100108.84;5037228;28;19944;-64
2021/09/16 11:59:24;;;;;;;;;;;;;;;16.80;74.04;100110.59;5037182;28;19932;-64
2021/09/16 12:02:13;;;;;;;;;;;;;;;16.81;73.75;100112.31;5036270;28;19967;-64
2021/09/16 12:04:57;;;;;;;;;;;;;;;16.83;73.84;100106.19;5035687;28;20438;-64
2021/09/16 12:07:44;;;;;;;;;;;;;;;16.84;73.88;100101.84;5036338;28;19928;-64
2021/09/16 12:10:35;;;;;;;;;;;;;;;16.85;73.86;100103.56;5036848;28;19992;-63
2021/09/16 12:13:33;;;;;;;;;;;;;;;16.86;73.82;100102.69;5036314;28;20002;-62
2021/09/16 12:16:22;;;;;;;;;;;;;;;16.89;73.64;100102.66;5035891;28;19975;-63
2021/09/16 12:19:07;;;;;;;;;;;;;;;16.89;73.88;100102.66;5035460;28;19929;-63
2021/09/16 12:21:54;;;;;;;;;;;;;;;16.91;73.62;100098.25;5035811;28;19928;-64
2021/09/16 12:24:38;;;;;;;;;;;;;;;16.91;73.62;100093.03;5036191;28;20020;-64
2021/09/16 12:27:23;;;;;;;;;;;;;;;16.93;73.69;100098.25;5036211;28;20388;-64
2021/09/16 12:30:20;;;;;;;;;;;;;;;16.94;73.45;100092.16;5035954;28;19975;-64
2021/09/16 12:33:24;;;;;;;;;;;;;;;16.93;73.50;100093.88;5036162;28;19979;-64
2021/09/16 12:36:11;;;;;;;;;;;;;;;16.95;73.57;100086.91;5035640;28;19927;-62
2021/09/16 12:39:04;;;;;;;;;;;;;;;16.96;73.42;100088.66;5035071;28;19992;-62
2021/09/16 12:41:54;;;;;;;;;;;;;;;16.96;73.22;100090.41;5035502;28;19927;-63
2021/09/16 12:44:38;;;;;;;;;;;;;;;16.96;73.46;100086.03;5034990;28;19975;-64
2021/09/16 12:47:25;;;;;;;;;;;;;;;16.97;73.35;100084.31;5035794;28;19928;-63
2021/09/16 12:50:09;;;;;;;;;;;;;;;16.97;73.46;100084.31;5034682;28;19928;-62
2021/09/16 12:52:53;;;;;;;;;;;;;;;16.97;73.31;100074.69;5035319;28;19970;-63
2021/09/16 12:55:37;;;;;;;;;;;;;;;16.98;73.31;100080.78;5035576;28;19952;-63
2021/09/16 12:58:26;;;;;;;;;;;;;;;16.98;73.30;100084.28;5035979;28;20300;-62
2021/09/16 13:01:10;;;;;;;;;;;;;;;16.98;73.23;100083.38;5034632;28;19971;-62
2021/09/16 13:04:01;;;;;;;;;;;;;;;16.98;73.04;100086.00;5035822;28;19979;-63
2021/09/16 13:06:45;;;;;;;;;;;;;;;16.97;73.25;100081.69;5035561;28;19943;-62
2021/09/16 13:09:32;;;;;;;;;;;;;;;16.97;73.35;100079.06;5035309;28;19951;-62
2021/09/16 13:12:20;;;;;;;;;;;;;;;16.97;73.33;100079.91;5034615;28;20422;-63
2021/09/16 13:15:05;;;;;;;;;;;;;;;16.99;73.13;100083.41;5034195;28;19931;-63
2021/09/16 13:17:49;;;;;;;;;;;;;;;16.99;73.27;100072.03;5035061;28;19928;-63
2021/09/16 13:20:34;;;;;;;;;;;;;;;17.00;73.20;100079.91;5034240;28;20315;-63
2021/09/16 13:23:18;;;;;;;;;;;;;;;17.01;72.94;100071.16;5035060;28;19943;-62
2021/09/16 13:26:02;;;;;;;;;;;;;;;17.03;72.85;100061.56;5034882;28;20300;-63
2021/09/16 13:28:48;;;;;;;;;;;;;;;17.07;73.11;100066.72;5035168;28;19928;-62
2021/09/16 13:31:35;;;;;;;;;;;;;;;17.07;72.93;100064.09;5034516;28;20030;-63
2021/09/16 13:34:19;;;;;;;;;;;;;;;17.08;72.74;100060.59;5035340;28;19928;-63
2021/09/16 13:37:03;;;;;;;;;;;;;;;17.08;72.96;100058.88;5035050;28;19974;-63
2021/09/16 13:39:48;;;;;;;;;;;;;;;17.08;72.86;100058.88;5034023;28;20389;-63
2021/09/16 13:42:34;;;;;;;;;;;;;;;17.07;72.63;100059.75;5034944;28;19963;-63
2021/09/16 13:45:18;;;;;;;;;;;;;;;17.07;72.60;100061.50;5033513;28;20300;-63
2021/09/16 13:48:03;;;;;;;;;;;;;;;17.07;72.64;100058.88;5034865;28;19983;-64
2021/09/16 13:50:47;;;;;;;;;;;;;;;17.08;72.88;100065.84;5034620;28;20020;-63
2021/09/16 13:53:33;;;;;;;;;;;;;;;17.09;72.72;100064.97;5033707;28;20063;-64
2021/09/16 13:56:22;;;;;;;;;;;;;;;17.08;72.44;100068.47;5033689;28;20060;-64
2021/09/16 13:59:09;;;;;;;;;;;;;;;17.08;72.63;100068.47;5033616;28;20447;-64
2021/09/16 14:01:53;;;;;;;;;;;;;;;17.07;72.75;100059.75;5034543;28;20026;-64
2021/09/16 14:04:40;;;;;;;;;;;;;;;17.08;72.82;100064.13;5047453;28;20308;-64
2021/09/16 14:07:27;;;;;;;;;;;;;;;17.08;72.52;100058.00;5033983;28;19932;-64
2021/09/16 14:10:11;;;;;;;;;;;;;;;17.08;72.61;100058.00;5033170;28;19928;-64
2021/09/16 14:12:55;;;;;;;;;;;;;;;17.09;72.79;100054.50;5034466;28;19943;-64
2021/09/16 14:15:42;;;;;;;;;;;;;;;17.09;72.60;100046.63;5034631;28;19983;-62
2021/09/16 14:18:29;;;;;;;;;;;;;;;17.10;72.50;100044.03;5034278;28;20012;-62
2021/09/16 14:21:13;;;;;;;;;;;;;;;17.12;72.61;100046.59;5034366;28;19928;-63